Time;durP1;ratioP1;P1;durP2;ratioP2;P2;SDS_P1;SDS_P2;PMS_P1;PMS_P2;Temp;Humidity;BMP_temperature;BMP_pressure;BME280_temperature;BME280_humidity;BME280_pressure;Samples;Min_cycle;Max_cycle;Signal;HPM_P1;HPM_P2
2021/11/08 00:00:55;;;;;;;1999.90;999.90;;;;;;;3.92;55.61;101028.59;4934023;28;97224;-78
2021/11/08 00:03:28;;;;;;;1999.90;999.90;;;;;;;3.92;55.46;101023.34;4942491;28;96898;-77
2021/11/08 00:05:57;;;;;;;1999.90;999.90;;;;;;;3.92;55.35;101025.06;4940939;28;98944;-77
2021/11/08 00:08:26;;;;;;;1999.90;999.90;;;;;;;3.92;55.60;101027.69;4963719;28;99199;-78
2021/11/08 00:10:53;;;;;;;1999.90;999.90;;;;;;;3.92;55.60;101025.06;4946852;28;97074;-79
2021/11/08 00:13:22;;;;;;;1999.90;999.90;;;;;;;3.89;55.48;101017.94;4944333;28;97459;-75
2021/11/08 00:16:00;;;;;;;1999.90;999.90;;;;;;;3.86;55.53;101033.53;4940031;28;98008;-76
2021/11/08 00:18:34;;;;;;;1999.90;999.90;;;;;;;3.81;55.69;101024.50;4958196;28;99386;-77
2021/11/08 00:21:01;;;;;;;1999.90;999.90;;;;;;;3.81;55.77;101034.13;4939918;28;96795;-77
2021/11/08 00:23:29;;;;;;;1999.90;999.90;;;;;;;3.80;55.90;101021.81;4929090;28;99163;-75
2021/11/08 00:26:01;;;;;;;1999.90;999.90;;;;;;;3.80;55.60;101027.97;4960218;28;100222;-77
2021/11/08 00:28:30;;;;;;;1999.90;999.90;;;;;;;3.80;55.96;101022.72;4958827;28;96787;-76
2021/11/08 00:30:59;;;;;;;1999.90;999.90;;;;;;;3.79;56.01;101030.50;4966318;28;97249;-76
2021/11/08 00:33:27;;;;;;;1999.90;999.90;;;;;;;3.79;55.95;101028.78;4959519;28;99583;-77
2021/11/08 00:35:56;;;;;;;1999.90;999.90;;;;;;;3.80;56.04;101037.59;4959265;28;98624;-77
2021/11/08 00:38:24;;;;;;;1999.90;999.90;;;;;;;3.80;56.11;101038.50;4958479;28;99941;-78
2021/11/08 00:40:52;;;;;;;1999.90;999.90;;;;;;;3.79;56.13;101041.94;4940897;28;98164;-76
2021/11/08 00:43:22;;;;;;;1999.90;999.90;;;;;;;3.80;55.96;101046.41;4941851;28;96845;-78
2021/11/08 00:45:51;;;;;;;1999.90;999.90;;;;;;;3.80;56.02;101029.69;4952933;28;96871;-76
2021/11/08 00:48:23;;;;;;;1999.90;999.90;;;;;;;3.78;55.86;101047.13;4958479;28;98347;-77
2021/11/08 00:50:53;;;;;;;1999.90;999.90;;;;;;;3.79;55.75;101051.56;4938608;28;97420;-78
2021/11/08 00:53:22;;;;;;;1999.90;999.90;;;;;;;3.80;56.00;101056.03;4923067;28;96923;-76
2021/11/08 00:55:51;;;;;;;1999.90;999.90;;;;;;;3.79;56.11;101052.47;4955463;28;97649;-78
2021/11/08 00:58:22;;;;;;;1999.90;999.90;;;;;;;3.81;56.19;101056.09;4952801;28;98844;-77
2021/11/08 01:00:51;;;;;;;1999.90;999.90;;;;;;;3.82;55.93;101067.53;4922278;28;97562;-76
2021/11/08 01:03:22;;;;;;;1999.90;999.90;;;;;;;3.81;55.76;101069.25;4940619;28;99951;-77
2021/11/08 01:05:49;;;;;;;1999.90;999.90;;;;;;;3.84;55.82;101068.53;4936875;28;98364;-77
2021/11/08 01:08:17;;;;;;;1999.90;999.90;;;;;;;3.86;55.65;101072.16;4936361;28;98145;-76
2021/11/08 01:10:45;;;;;;;1999.90;999.90;;;;;;;3.82;55.81;101070.16;4954162;28;97345;-78
2021/11/08 01:13:13;;;;;;;1999.90;999.90;;;;;;;3.83;55.78;101074.59;4947406;28;97076;-76
2021/11/08 01:15:41;;;;;;;1999.90;999.90;;;;;;;3.79;56.06;101084.06;4948262;28;97672;-76
2021/11/08 01:18:09;;;;;;;1999.90;999.90;;;;;;;3.81;56.02;101077.16;4949383;28;99843;-77
2021/11/08 01:20:45;;;;;;;1999.90;999.90;;;;;;;3.82;55.89;101078.06;4954059;28;97597;-76
2021/11/08 01:23:14;;;;;;;1999.90;999.90;;;;;;;3.83;55.78;101091.31;4956774;28;97304;-75
2021/11/08 01:25:43;;;;;;;1999.90;999.90;;;;;;;3.82;55.96;101088.59;4941924;28;99639;-76
2021/11/08 01:28:11;;;;;;;1999.90;999.90;;;;;;;3.82;55.82;101099.13;4956616;28;97602;-76
2021/11/08 01:30:39;;;;;;;1999.90;999.90;;;;;;;3.80;55.78;101091.16;4935844;28;97074;-76
2021/11/08 01:33:08;;;;;;;1999.90;999.90;;;;;;;3.80;56.02;101101.69;4960146;28;97575;-76
2021/11/08 01:35:40;;;;;;;1999.90;999.90;;;;;;;3.79;55.96;101110.38;4957892;28;97851;-77
2021/11/08 01:38:11;;;;;;;1999.90;999.90;;;;;;;3.79;56.01;101105.13;4941211;28;98644;-76
2021/11/08 01:40:41;;;;;;;1999.90;999.90;;;;;;;3.78;56.06;101102.41;4959468;28;96888;-77
2021/11/08 01:43:11;;;;;;;1999.90;999.90;;;;;;;3.76;56.08;101109.31;4950381;28;98153;-77
2021/11/08 01:45:39;;;;;;;1999.90;999.90;;;;;;;3.74;56.35;101114.50;4936349;28;100662;-76
2021/11/08 01:48:08;;;;;;;1999.90;999.90;;;;;;;3.76;55.94;101118.13;4954042;28;97615;-76
2021/11/08 01:50:38;;;;;;;1999.90;999.90;;;;;;;3.76;56.19;101115.50;4936772;28;96977;-77
2021/11/08 01:53:06;;;;;;;1999.90;999.90;;;;;;;3.80;56.40;101129.72;4935715;28;98552;-76
2021/11/08 01:55:34;;;;;;;1999.90;999.90;;;;;;;3.81;56.39;101119.25;4944574;28;96833;-77
2021/11/08 01:58:02;;;;;;;1999.90;999.90;;;;;;;3.84;56.56;101123.81;4961318;28;99048;-77
2021/11/08 02:00:31;;;;;;;1999.90;999.90;;;;;;;3.85;56.11;101118.63;4961602;28;97624;-80
2021/11/08 02:02:59;;;;;;;1999.90;999.90;;;;;;;3.87;56.29;101123.94;4921602;28;97620;-76
2021/11/08 02:05:27;;;;;;;1999.90;999.90;;;;;;;3.88;55.90;101118.75;4939915;28;100080;-76
2021/11/08 02:07:58;;;;;;;1999.90;999.90;;;;;;;3.88;56.02;101120.47;4926997;28;98314;-78
2021/11/08 02:10:27;;;;;;;1999.90;999.90;;;;;;;3.90;56.18;101124.09;4935029;28;96859;-76
2021/11/08 02:12:55;;;;;;;1999.90;999.90;;;;;;;3.88;56.28;101131.94;4960831;28;97723;-77
2021/11/08 02:15:22;;;;;;;1999.90;999.90;;;;;;;3.89;55.96;101123.22;4936677;28;98976;-76
2021/11/08 02:17:50;;;;;;;1999.90;999.90;;;;;;;3.93;56.49;101126.94;4944606;28;98729;-76
2021/11/08 02:20:21;;;;;;;1999.90;999.90;;;;;;;3.90;56.37;101125.00;4932859;28;96955;-77
2021/11/08 02:22:51;;;;;;;1999.90;999.90;;;;;;;3.93;56.60;101132.19;4956385;28;97353;-75
2021/11/08 02:25:19;;;;;;;1999.90;999.90;;;;;;;3.96;56.58;101142.88;4923420;28;99697;-76
2021/11/08 02:27:48;;;;;;;1999.90;999.90;;;;;;;3.93;56.55;101146.22;4960022;28;99533;-76
2021/11/08 02:30:16;;;;;;;1999.90;999.90;;;;;;;3.95;56.77;101147.22;4959116;28;97720;-78
2021/11/08 02:32:44;;;;;;;1999.90;999.90;;;;;;;3.97;56.83;101147.34;4943177;28;96758;-75
2021/11/08 02:35:15;;;;;;;1999.90;999.90;;;;;;;4.00;56.56;101156.28;4957767;28;98017;-76
2021/11/08 02:37:44;;;;;;;1999.90;999.90;;;;;;;4.03;56.54;101156.44;4941337;28;99122;-79
2021/11/08 02:40:19;;;;;;;1999.90;999.90;;;;;;;4.02;56.79;101159.88;4942533;28;97555;-78
2021/11/08 02:42:49;;;;;;;1999.90;999.90;;;;;;;4.01;56.83;101152.81;4956815;28;100593;-77
2021/11/08 02:45:19;;;;;;;1999.90;999.90;;;;;;;4.01;56.99;101159.81;4948163;28;100128;-76
2021/11/08 02:47:48;;;;;;;1999.90;999.90;;;;;;;4.00;56.87;101156.28;4949562;28;100764;-76
2021/11/08 02:50:17;;;;;;;1999.90;999.90;;;;;;;4.00;56.58;101158.00;4941588;28;97946;-75
2021/11/08 02:52:49;;;;;;;1999.90;999.90;;;;;;;3.99;56.72;101157.09;4959328;28;96774;-77
2021/11/08 02:55:18;;;;;;;1999.90;999.90;;;;;;;3.98;56.81;101160.56;4959794;28;97579;-76
2021/11/08 02:57:48;;;;;;;1999.90;999.90;;;;;;;3.97;56.75;101157.84;4959587;28;98026;-77
2021/11/08 03:00:16;;;;;;;1999.90;999.90;;;;;;;3.97;56.90;101174.53;4956841;28;97840;-77
2021/11/08 03:02:44;;;;;;;1999.90;999.90;;;;;;;4.01;56.76;101172.97;4935426;28;96853;-75
2021/11/08 03:05:15;;;;;;;1999.90;999.90;;;;;;;4.01;56.79;101176.53;4942050;28;98642;-73
2021/11/08 03:07:43;;;;;;;1999.90;999.90;;;;;;;4.04;56.73;101175.78;4936963;28;99009;-78
2021/11/08 03:10:17;;;;;;;1999.90;999.90;;;;;;;4.06;56.68;101171.50;4951793;28;97068;-76
2021/11/08 03:12:46;;;;;;;1999.90;999.90;;;;;;;4.08;56.56;101183.91;4939296;28;98272;-77
2021/11/08 03:15:25;;;;;;;1999.90;999.90;;;;;;;4.10;56.49;101177.00;4958135;28;98172;-77
2021/11/08 03:18:02;;;;;;;1999.90;999.90;;;;;;;4.14;56.50;101179.00;4934539;28;97880;-76
2021/11/08 03:20:30;;;;;;;1999.90;999.90;;;;;;;4.15;56.26;101195.69;4933665;28;96976;-76
2021/11/08 03:23:02;;;;;;;1999.90;999.90;;;;;;;4.12;56.32;101187.63;4951685;28;97079;-78
2021/11/08 03:25:39;;;;;;;1999.90;999.90;;;;;;;4.10;56.44;101187.53;4930908;28;99743;-77
2021/11/08 03:28:09;;;;;;;1999.90;999.90;;;;;;;4.10;56.28;101191.91;4957944;28;97808;-77
2021/11/08 03:30:41;;;;;;;1999.90;999.90;;;;;;;4.12;56.18;101191.16;4954009;28;98160;-77
2021/11/08 03:33:12;;;;;;;1999.90;999.90;;;;;;;4.12;56.15;101196.44;4932164;28;97816;-76
2021/11/08 03:35:41;;;;;;;1999.90;999.90;;;;;;;4.14;55.86;101197.44;4956451;28;97566;-77
2021/11/08 03:38:10;;;;;;;1999.90;999.90;;;;;;;4.13;55.93;101202.63;4952081;28;99726;-76
2021/11/08 03:40:42;;;;;;;1999.90;999.90;;;;;;;4.11;56.01;101202.53;4949621;28;96861;-76
2021/11/08 03:43:12;;;;;;;1999.90;999.90;;;;;;;4.10;55.90;101208.59;4948805;28;97702;-76
2021/11/08 03:45:40;;;;;;;1999.90;999.90;;;;;;;4.07;56.15;101213.72;4935132;28;98047;-76
2021/11/08 03:48:10;;;;;;;1999.90;999.90;;;;;;;4.08;55.84;101217.25;4935495;28;99652;-76
2021/11/08 03:50:38;;;;;;;1999.90;999.90;;;;;;;4.07;55.87;101219.00;4955085;28;97076;-76
2021/11/08 03:53:06;;;;;;;1999.90;999.90;;;;;;;4.07;55.97;101228.59;4953236;28;97090;-74
2021/11/08 03:55:35;;;;;;;1999.90;999.90;;;;;;;4.05;55.99;101225.91;4955983;28;98704;-75
2021/11/08 03:58:05;;;;;;;1999.90;999.90;;;;;;;4.04;56.35;101229.34;4949851;28;99418;-77
2021/11/08 04:00:33;;;;;;;1999.90;999.90;;;;;;;4.03;55.90;101238.06;4958003;28;97706;-76
2021/11/08 04:03:01;;;;;;;1999.90;999.90;;;;;;;4.04;56.01;101236.34;4920400;28;96839;-77
2021/11/08 04:05:31;;;;;;;1999.90;999.90;;;;;;;4.06;55.93;101240.84;4936543;28;97947;-77
2021/11/08 04:08:03;;;;;;;1999.90;999.90;;;;;;;4.05;55.96;101249.59;4957153;28;97743;-78
2021/11/08 04:10:32;;;;;;;1999.90;999.90;;;;;;;4.04;56.21;101250.41;4957477;28;97283;-77
2021/11/08 04:13:04;;;;;;;1999.90;999.90;;;;;;;4.06;56.04;101247.88;4958298;28;98089;-77
2021/11/08 04:15:37;;;;;;;1999.90;999.90;;;;;;;4.07;56.03;101249.69;4958670;28;98064;-76
2021/11/08 04:18:07;;;;;;;1999.90;999.90;;;;;;;4.03;56.00;101251.25;4929995;28;99507;-75
2021/11/08 04:20:36;;;;;;;1999.90;999.90;;;;;;;4.04;55.93;101253.03;4934972;28;97082;-76
2021/11/08 04:23:05;;;;;;;1999.90;999.90;;;;;;;4.02;56.33;101267.84;4952628;28;97347;-76
2021/11/08 04:25:32;;;;;;;1999.90;999.90;;;;;;;4.00;56.48;101258.06;4951010;28;97972;-77
2021/11/08 04:28:00;;;;;;;1999.90;999.90;;;;;;;3.99;56.19;101262.41;4954099;28;98165;-76
2021/11/08 04:30:30;;;;;;;1999.90;999.90;;;;;;;3.99;56.25;101267.69;4935543;28;97319;-77
2021/11/08 04:33:17;;;;;;;1999.90;999.90;;;;;;;3.98;56.52;101262.34;4935802;28;97240;-76
2021/11/08 04:35:54;;;;;;;1999.90;999.90;;;;;;;4.02;56.27;101273.09;4920396;28;100797;-76
2021/11/08 04:38:34;;;;;;;1999.90;999.90;;;;;;;4.02;56.47;101273.09;4954600;28;97716;-76
2021/11/08 04:41:16;;;;;;;1999.90;999.90;;;;;;;4.02;56.38;101272.22;4933939;28;97081;-77
2021/11/08 04:43:55;;;;;;;1999.90;999.90;;;;;;;4.02;56.59;101278.38;4956997;28;97070;-77
2021/11/08 04:46:38;;;;;;;1999.90;999.90;;;;;;;3.62;57.84;101279.59;4954791;28;98725;-76
2021/11/08 04:52:04;;;;;;;1999.90;999.90;;;;;;;3.32;58.66;101280.44;4919712;28;97280;-76
2021/11/08 04:54:42;;;;;;;1999.90;999.90;;;;;;;3.27;58.96;101284.53;4933564;28;98046;-75
2021/11/08 04:57:36;;;;;;;1999.90;999.90;;;;;;;3.22;58.63;101288.66;4955655;28;97965;-81
2021/11/08 05:25:24;;;;;;;1999.90;999.90;;;;;;;2.93;59.63;101326.31;4926062;28;97197;-79
2021/11/08 05:28:06;;;;;;;1999.90;999.90;;;;;;;2.94;59.04;101328.16;4926624;28;96810;-78
2021/11/08 05:30:34;;;;;;;1999.90;999.90;;;;;;;2.89;59.95;101336.59;4925798;28;98011;-78
2021/11/08 05:33:02;;;;;;;1999.90;999.90;;;;;;;2.91;59.43;101329.69;4905048;28;98102;-78
2021/11/08 05:35:31;;;;;;;1999.90;999.90;;;;;;;2.92;59.57;101327.16;4921192;28;97933;-79
2021/11/08 05:38:05;;;;;;;1999.90;999.90;;;;;;;2.94;59.25;101333.41;4927076;28;97911;-77
2021/11/08 05:40:36;;;;;;;1999.90;999.90;;;;;;;2.93;59.80;101334.22;4913913;28;99366;-80
2021/11/08 05:43:06;;;;;;;1999.90;999.90;;;;;;;2.94;59.66;101329.88;4928919;28;98153;-78
2021/11/08 05:45:35;;;;;;;1999.90;999.90;;;;;;;2.92;59.87;101340.31;4928017;28;99094;-78
2021/11/08 05:48:05;;;;;;;1999.90;999.90;;;;;;;2.91;59.59;101341.09;4924864;28;97655;-77
2021/11/08 05:50:34;;;;;;;1999.90;999.90;;;;;;;2.91;59.90;101337.59;4933710;28;98803;-76
2021/11/08 05:53:05;;;;;;;1999.90;999.90;;;;;;;2.87;59.84;101347.00;4896289;28;99642;-77
2021/11/08 05:55:36;;;;;;;1999.90;999.90;;;;;;;2.87;59.69;101348.72;4910259;28;96915;-75
2021/11/08 05:58:14;;;;;;;1999.90;999.90;;;;;;;2.84;60.00;101348.50;4914622;28;97086;-77
2021/11/08 06:50:58;;;;;;;1999.90;999.90;;;;;;;2.67;60.22;101435.94;4934176;28;97252;-83
2021/11/08 06:53:31;;;;;;;1999.90;999.90;;;;;;;2.63;60.02;101441.78;4940137;28;96734;-83
2021/11/08 06:56:00;;;;;;;1999.90;999.90;;;;;;;2.59;59.88;101438.06;4951648;28;97925;-83
2021/11/08 06:58:30;;;;;;;1999.90;999.90;;;;;;;2.57;60.18;101431.81;4919709;28;99567;-82
2021/11/08 07:00:58;;;;;;;1999.90;999.90;;;;;;;2.55;59.93;101443.00;4929325;28;97051;-83
2021/11/08 07:03:30;;;;;;;1999.90;999.90;;;;;;;2.54;60.39;101442.13;4929597;28;96752;-82
2021/11/08 07:05:58;;;;;;;1999.90;999.90;;;;;;;2.54;59.94;101449.09;4918553;28;99686;-83
2021/11/08 07:08:26;;;;;;;1999.90;999.90;;;;;;;2.53;59.81;101445.53;4925945;28;98023;-81
2021/11/08 07:10:54;;;;;;;1999.90;999.90;;;;;;;2.56;60.07;101456.28;4931336;28;97559;-83
2021/11/08 07:13:22;;;;;;;1999.90;999.90;;;;;;;2.57;60.40;101454.53;4921523;28;96810;-83
2021/11/08 07:15:52;;;;;;;1999.90;999.90;;;;;;;2.57;59.75;101454.53;4915820;28;99574;-83
2021/11/08 07:18:20;;;;;;;1999.90;999.90;;;;;;;2.56;60.06;101450.09;4906581;28;100427;-81
2021/11/08 07:20:49;;;;;;;1999.90;999.90;;;;;;;2.55;60.13;101448.25;4921612;28;97401;-82
2021/11/08 07:23:18;;;;;;;1999.90;999.90;;;;;;;2.54;59.75;101449.09;4909351;28;96916;-80
2021/11/08 07:25:45;;;;;;;1999.90;999.90;;;;;;;2.53;60.00;101456.06;4926242;28;98408;-80
2021/11/08 07:28:46;;;;;;;1999.90;999.90;;;;;;;2.56;59.60;101455.34;4916300;28;98504;-82
2021/11/08 07:32:49;;;;;;;;;;;;;;;;;;;;;
2021/11/08 07:36:04;;;;;;;1999.90;999.90;;;;;;;2.55;60.29;101472.81;4920219;28;96967;-80
2021/11/08 07:38:33;;;;;;;1999.90;999.90;;;;;;;2.60;59.78;101466.13;4923762;28;99014;-82
2021/11/08 07:41:03;;;;;;;1999.90;999.90;;;;;;;2.63;59.62;101468.97;4922883;28;98114;-81
2021/11/08 07:43:34;;;;;;;1999.90;999.90;;;;;;;2.64;59.62;101486.56;4920558;28;97655;-80
2021/11/08 07:46:02;;;;;;;1999.90;999.90;;;;;;;2.61;60.17;101475.84;4923671;28;96737;-81
2021/11/08 07:48:30;;;;;;;1999.90;999.90;;;;;;;2.60;60.30;101481.03;4922278;28;99518;-81
2021/11/08 07:51:03;;;;;;;1999.90;999.90;;;;;;;2.59;59.87;101487.06;4918223;28;98284;-83
2021/11/08 07:53:31;;;;;;;1999.90;999.90;;;;;;;2.56;60.25;101497.38;4920673;28;96934;-81
2021/11/08 07:56:00;;;;;;;1999.90;999.90;;;;;;;2.56;59.65;101494.75;4920273;28;97276;-81
2021/11/08 07:58:28;;;;;;;1999.90;999.90;;;;;;;2.56;59.77;101494.75;4922466;28;100053;-83
2021/11/08 08:00:57;;;;;;;1999.90;999.90;;;;;;;2.90;58.87;101490.84;4918643;28;99647;-84
2021/11/08 08:03:27;;;;;;;1999.90;999.90;;;;;;;2.75;59.86;101498.66;4920292;28;96892;-84
2021/11/08 08:06:03;;;;;;;1999.90;999.90;;;;;;;2.73;59.54;101495.00;4920065;28;98780;-83
2021/11/08 08:08:33;;;;;;;1999.90;999.90;;;;;;;2.75;59.78;101496.03;4924933;28;99312;-83
2021/11/08 08:11:03;;;;;;;1999.90;999.90;;;;;;;2.75;59.74;101510.88;4910455;28;100363;-81
2021/11/08 08:13:33;;;;;;;1999.90;999.90;;;;;;;2.77;60.06;101518.06;4925774;28;97237;-81
2021/11/08 08:16:05;;;;;;;1999.90;999.90;;;;;;;2.76;60.03;101512.72;4934672;28;97306;-82
2021/11/08 08:18:36;;;;;;;1999.90;999.90;;;;;;;2.79;59.54;101520.78;4924596;28;97811;-82
2021/11/08 08:21:06;;;;;;;1999.90;999.90;;;;;;;2.80;59.60;101513.00;4921626;28;98915;-81
2021/11/08 08:23:54;;;;;;;1999.90;999.90;;;;;;;2.85;59.23;101510.66;4921903;28;96865;-80
2021/11/08 08:26:24;;;;;;;1999.90;999.90;;;;;;;2.86;59.73;101516.00;4916595;28;97485;-80
2021/11/08 08:28:52;;;;;;;1999.90;999.90;;;;;;;2.88;59.28;101518.72;4921216;28;97953;-81
2021/11/08 08:31:22;;;;;;;1999.90;999.90;;;;;;;2.91;59.80;101504.06;4925134;28;98182;-82
2021/11/08 08:33:51;;;;;;;1999.90;999.90;;;;;;;2.93;59.72;101512.97;4922322;28;97176;-82
2021/11/08 08:36:20;;;;;;;1999.90;999.90;;;;;;;2.97;59.49;101512.34;4922538;28;96908;-81
2021/11/08 08:38:50;;;;;;;1999.90;999.90;;;;;;;2.98;59.52;101516.78;4922181;28;99557;-81
2021/11/08 08:41:18;;;;;;;1999.90;999.90;;;;;;;3.03;59.58;101519.72;4925116;28;99434;-82
2021/11/08 08:43:46;;;;;;;1999.90;999.90;;;;;;;3.04;59.67;101516.25;4923306;28;96855;-81
2021/11/08 08:46:15;;;;;;;1999.90;999.90;;;;;;;3.06;58.94;101526.06;4934572;28;96760;-81
2021/11/08 08:48:44;;;;;;;1999.90;999.90;;;;;;;3.12;59.42;101531.72;4926643;28;98128;-82
2021/11/08 08:51:12;;;;;;;1999.90;999.90;;;;;;;3.14;58.92;101537.06;4927590;28;99793;-85
2021/11/08 08:53:42;;;;;;;1999.90;999.90;;;;;;;3.18;59.08;101546.97;4925549;28;97878;-82
2021/11/08 08:56:25;;;;;;;1999.90;999.90;;;;;;;3.18;59.32;101547.84;4928612;28;97208;-82
2021/11/08 08:58:55;;;;;;;1999.90;999.90;;;;;;;3.19;59.06;101551.41;4926328;28;99358;-83
2021/11/08 09:01:24;;;;;;;1999.90;999.90;;;;;;;3.17;59.39;101545.13;4921274;28;99377;-81
2021/11/08 09:03:54;;;;;;;1999.90;999.90;;;;;;;3.19;59.15;101554.03;4920934;28;97713;-81
2021/11/08 09:06:23;;;;;;;1999.90;999.90;;;;;;;3.22;59.25;101559.50;4931593;28;97653;-81
2021/11/08 09:08:54;;;;;;;1999.90;999.90;;;;;;;3.24;58.84;101561.41;4917523;28;99742;-81
2021/11/08 09:11:23;;;;;;;1999.90;999.90;;;;;;;3.28;59.40;101564.25;4920549;28;98046;-81
2021/11/08 09:13:52;;;;;;;1999.90;999.90;;;;;;;3.31;58.77;101562.72;4922240;28;97497;-82
2021/11/08 09:16:20;;;;;;;1999.90;999.90;;;;;;;3.37;59.16;101568.34;4923084;28;96856;-82
2021/11/08 09:18:51;;;;;;;1999.90;999.90;;;;;;;3.41;58.82;101566.81;4922927;28;98191;-83
2021/11/08 09:21:21;;;;;;;1999.90;999.90;;;;;;;3.43;58.84;101558.22;4907049;28;98044;-83
2021/11/08 09:23:50;;;;;;;1999.90;999.90;;;;;;;3.49;58.65;101571.75;4927178;28;97445;-83
2021/11/08 09:26:26;;;;;;;1999.90;999.90;;;;;;;3.54;58.89;101567.66;4929841;28;96850;-82
2021/11/08 09:28:55;;;;;;;1999.90;999.90;;;;;;;3.83;57.93;101565.13;4929749;28;98235;-83
2021/11/08 09:31:26;;;;;;;1999.90;999.90;;;;;;;3.71;58.16;101569.66;4911285;28;99402;-82
2021/11/08 09:34:03;;;;;;;1999.90;999.90;;;;;;;3.74;58.50;101577.72;4926772;28;96778;-83
2021/11/08 09:36:31;;;;;;;1999.90;999.90;;;;;;;3.74;58.37;101569.84;4913648;28;97210;-84
2021/11/08 09:39:00;;;;;;;1999.90;999.90;;;;;;;3.79;58.68;101578.91;4928805;28;99840;-84
2021/11/08 09:41:35;;;;;;;1999.90;999.90;;;;;;;3.81;58.52;101577.28;4937015;28;97934;-83
2021/11/08 09:44:06;;;;;;;1999.90;999.90;;;;;;;3.84;58.51;101577.47;4934107;28;97708;-82
2021/11/08 09:46:35;;;;;;;1999.90;999.90;;;;;;;3.88;58.22;101582.09;4933760;28;97132;-83
2021/11/08 09:49:06;;;;;;;1999.90;999.90;;;;;;;3.92;58.31;101596.34;4939440;28;101369;-82
2021/11/08 09:51:38;;;;;;;1999.90;999.90;;;;;;;3.92;58.06;101586.75;4934919;28;97883;-83
2021/11/08 09:54:06;;;;;;;1999.90;999.90;;;;;;;3.93;58.15;101591.19;4935605;28;97581;-82
2021/11/08 09:56:36;;;;;;;1999.90;999.90;;;;;;;3.97;57.80;101595.81;4936552;28;96752;-83
2021/11/08 09:59:04;;;;;;;1999.90;999.90;;;;;;;3.97;58.04;101589.66;4937692;28;98664;-82
2021/11/08 10:01:45;;;;;;;1999.90;999.90;;;;;;;3.99;57.87;101586.28;4933817;28;98207;-82
2021/11/08 10:04:14;;;;;;;1999.90;999.90;;;;;;;4.01;57.95;101596.91;4935594;28;96917;-84
2021/11/08 10:06:46;;;;;;;1999.90;999.90;;;;;;;4.02;57.70;101594.38;4934697;28;97133;-83
2021/11/08 10:09:19;;;;;;;1999.90;999.90;;;;;;;4.05;57.84;101589.31;4926856;28;98296;-83
2021/11/08 10:11:50;;;;;;;1999.90;999.90;;;;;;;4.11;57.95;101594.94;4941402;28;99360;-75
2021/11/08 10:14:19;;;;;;;1999.90;999.90;;;;;;;4.17;58.08;101590.03;4913957;28;97223;-75
2021/11/08 10:16:48;;;;;;;1999.90;999.90;;;;;;;4.23;57.73;101595.66;4915606;28;96941;-75
2021/11/08 10:19:22;;;;;;;1999.90;999.90;;;;;;;4.29;57.64;101610.94;4916355;28;98426;-74
2021/11/08 10:21:52;;;;;;;1999.90;999.90;;;;;;;4.34;57.64;101598.00;4930828;28;98490;-83
2021/11/08 10:24:24;;;;;;;1999.90;999.90;;;;;;;4.37;57.14;101598.22;4926659;28;99700;-83
2021/11/08 10:26:55;;;;;;;1999.90;999.90;;;;;;;4.41;57.34;101609.00;4945159;28;97192;-83
2021/11/08 10:29:25;;;;;;;1999.90;999.90;;;;;;;4.45;57.34;101612.72;4931074;28;99306;-83
2021/11/08 10:32:08;;;;;;;1999.90;999.90;;;;;;;4.39;57.34;101615.03;4929659;28;99303;-83
2021/11/08 10:34:46;;;;;;;1999.90;999.90;;;;;;;4.42;56.87;101612.56;4910349;28;97477;-83
2021/11/08 10:37:23;;;;;;;1999.90;999.90;;;;;;;4.46;57.17;101606.66;4921483;28;96975;-83
2021/11/08 10:39:53;;;;;;;1999.90;999.90;;;;;;;4.50;57.25;101604.28;4927291;28;98869;-84
2021/11/08 10:42:32;;;;;;;1999.90;999.90;;;;;;;4.52;56.75;101609.66;4926601;28;99668;-82
2021/11/08 10:45:01;;;;;;;1999.90;999.90;;;;;;;4.59;57.23;101617.09;4919013;28;96835;-83
2021/11/08 10:47:29;;;;;;;1999.90;999.90;;;;;;;4.60;57.23;101606.66;4925125;28;98303;-82
2021/11/08 10:49:57;;;;;;;1999.90;999.90;;;;;;;4.92;55.93;101613.75;4943869;28;97796;-81
2021/11/08 10:52:29;;;;;;;1999.90;999.90;;;;;;;5.12;55.49;101618.44;4944051;28;98384;-83
2021/11/08 10:54:58;;;;;;;1999.90;999.90;;;;;;;5.30;55.18;101614.22;4931150;28;97296;-81
2021/11/08 10:57:29;;;;;;;1999.90;999.90;;;;;;;5.45;54.47;101614.16;4930969;28;96990;-82
2021/11/08 10:59:58;;;;;;;1999.90;999.90;;;;;;;5.60;54.02;101629.09;4929374;28;99838;-82
2021/11/08 11:02:28;;;;;;;1999.90;999.90;;;;;;;5.70;53.67;101620.88;4908408;28;98503;-82
2021/11/08 11:04:58;;;;;;;1999.90;999.90;;;;;;;5.80;53.25;101619.59;4925001;28;97249;-82
2021/11/08 11:07:27;;;;;;;1999.90;999.90;;;;;;;5.87;52.83;101620.00;4934033;28;97632;-81
2021/11/08 11:10:01;;;;;;;1999.90;999.90;;;;;;;5.94;52.79;101623.91;4936205;28;98516;-84
2021/11/08 11:12:31;;;;;;;1999.90;999.90;;;;;;;5.99;52.46;101612.75;4941152;28;98032;-82
2021/11/08 11:15:03;;;;;;;1999.90;999.90;;;;;;;6.02;51.96;101618.19;4915317;28;97269;-83
2021/11/08 11:17:34;;;;;;;1999.90;999.90;;;;;;;6.02;51.84;101617.28;4932413;28;96785;-82
2021/11/08 11:20:05;;;;;;;1999.90;999.90;;;;;;;6.03;51.88;101616.47;4933945;28;97797;-83
2021/11/08 11:22:35;;;;;;;1999.90;999.90;;;;;;;6.04;51.96;101605.97;4950797;28;98008;-82
2021/11/08 11:25:07;;;;;;;1999.90;999.90;;;;;;;6.07;51.52;101606.13;4933277;28;97583;-85
2021/11/08 11:27:46;;;;;;;1999.90;999.90;;;;;;;6.09;51.58;101617.69;4933109;28;97569;-85
2021/11/08 11:30:23;;;;;;;1999.90;999.90;;;;;;;6.11;51.53;101602.81;4928741;28;97651;-83
2021/11/08 11:33:00;;;;;;;1999.90;999.90;;;;;;;6.07;51.35;101610.50;4932998;28;97828;-83
2021/11/08 11:35:34;;;;;;;1999.90;999.90;;;;;;;5.76;52.87;101604.41;4924187;28;97229;-81
2021/11/08 11:38:10;;;;;;;1999.90;999.90;;;;;;;5.59;53.12;101600.91;4935447;28;97556;-82
2021/11/08 11:40:42;;;;;;;1999.90;999.90;;;;;;;5.50;53.49;101604.75;4925025;28;99287;-82
2021/11/08 11:43:14;;;;;;;1999.90;999.90;;;;;;;5.47;53.95;101602.84;4925193;28;98287;-85
2021/11/08 11:45:47;;;;;;;1999.90;999.90;;;;;;;5.46;53.92;101598.41;4945733;28;97310;-81
2021/11/08 11:48:17;;;;;;;1999.90;999.90;;;;;;;5.48;53.91;101599.41;4939208;28;96640;-84
2021/11/08 11:51:07;;;;;;;1999.90;999.90;;;;;;;5.48;54.41;101603.75;4958261;28;99765;-82
2021/11/08 11:53:36;;;;;;;1999.90;999.90;;;;;;;5.47;54.10;101602.84;4947028;28;98810;-80
2021/11/08 11:56:05;;;;;;;1999.90;999.90;;;;;;;5.44;54.21;101609.69;4923318;28;96806;-79
2021/11/08 11:58:35;;;;;;;1999.90;999.90;;;;;;;5.42;54.11;101612.25;4910174;28;96869;-80
2021/11/08 12:01:04;;;;;;;1999.90;999.90;;;;;;;5.41;54.36;101623.63;4922440;28;98190;-80
2021/11/08 12:03:32;;;;;;;1999.90;999.90;;;;;;;5.38;54.12;101609.34;4918910;28;97865;-81
2021/11/08 12:06:02;;;;;;;1999.90;999.90;;;;;;;5.32;54.53;101599.34;4924063;28;97874;-80
2021/11/08 12:08:34;;;;;;;1999.90;999.90;;;;;;;5.29;54.48;101599.19;4914002;28;96815;-81
2021/11/08 12:11:03;;;;;;;1999.90;999.90;;;;;;;5.30;54.67;101594.84;4931818;28;97966;-81
2021/11/08 12:13:34;;;;;;;1999.90;999.90;;;;;;;5.29;54.88;101599.19;4924684;28;98166;-80
2021/11/08 12:16:16;;;;;;;1999.90;999.90;;;;;;;5.31;54.76;101594.91;4923152;28;96817;-80
2021/11/08 12:19:04;;;;;;;1999.90;999.90;;;;;;;5.33;54.71;101601.19;4922143;28;96783;-80
2021/11/08 12:21:34;;;;;;;1999.90;999.90;;;;;;;5.32;54.21;101602.00;4916473;28;100666;-81
2021/11/08 12:27:18;;;;;;;1999.90;999.90;;;;;;;5.28;54.52;101597.41;5024490;23;98857;-83
2021/11/08 12:29:48;;;;;;;1999.90;999.90;;;;;;;5.29;54.32;101601.84;4778463;29;98041;-82
2021/11/08 12:32:18;;;;;;;1999.90;999.90;;;;;;;5.29;54.44;101596.56;4782550;29;101366;-80
2021/11/08 12:34:48;;;;;;;1999.90;999.90;;;;;;;5.32;54.21;101590.56;4784642;29;97943;-81